Ana Sayfa
METAR-TAF:

METAR-TAF

Havaalanları :

Lake Argyle, Avustralya

Enlem: 16-38-13S, Boylam: 128-27-05E, yükseklik: 159 m

Güncel hava durumu gözlemi

Rapor saat 15:30 UTC de 5 dakika önce yapıldı.
Rüzgar kuzeydoğudan 13 kt
Sıcaklık 25°C
Nem 94%
Basınç 1006 hPa
Görüş mesafesi 10 km veya daha fazla
1200 ft yükseklikte parçalı çok bulutlu
3600 ft yükseklikte parçalı çok bulutlu
11000 ft yükseklikte parçalı çok bulutlu

METAR: YARG 281530Z AUTO 05013KT 9999 // BKN012 BKN036 BKN110 25/24 Q1006

Saat: 23:35 (15:35 UTC)


TAF: eksik

4.000'den fazla havaalanı için hava durumu gözlemleri ve tahminleri (METAR ve TAF raporları).

Kullanılabilir istasyonlar harita üzerinde sarı ve kırmızı noktalarla gösterilir.

İstasyonun adını görmek için fareyi noktanın üzerinde gezdirin.

Sonrasında hava gözlem ve tahminlerini görmek için tıklayın.

Haritayı değiştirmek için: yaklaştırmak için siyah artı işaretli yeşil düğmeye ve uzaklaştırmak için de eksi işaretli düğmeye hızla tıklayın; bitişik haritalar için yeşil okları kullanın.


METAR-TAF: